• Join FlightAware (Why Join?)
  • Login
  • US Flag 
08:13AM EDT


 

Airport Tracker/Info


-or-


 

Live Flight TrackerFlight Track Log ✈ SWA3497 ✈ 26-Apr-2013 ✈ KMDW - KSDF

Flight Track Log - Related Links

Times and Time Zones

All times are in EDT time to prevent confusion due to time zone crossing. See the SWA3497 flight status page for this flight to view local times or setup timezone preferences in your user account.

Time Position Orientation Groundspeed Altitude Reporting Facility
EDT Latitude Longitude Course Direction KTS MPH feet Rate Location/Type
12:27PM 41.7000 -87.8167 206° Southwest 224 258 5,100  Level Chicago TRACON
12:29PM 41.6100 -87.7928 169° South 260 299 9,400 2,820 Climbing Chicago Center
12:30PM 41.5158 -87.7592 165° South 288 331 12,300 2,640 Climbing Chicago Center
12:31PM 41.4267 -87.7292 166° South 318 366 14,900 2,640 Climbing Chicago Center
12:32PM 41.3286 -87.7067 170° South 344 396 17,800 2,580 Climbing Chicago Center
12:33PM 41.2217 -87.6778 169° South 378 435 20,300 2,460 Climbing Chicago Center
12:34PM 41.1133 -87.6500 169° South 391 450 23,000 1,260 Climbing Chicago Center
12:35PM 40.9975 -87.6200 169° South 412 474 23,000  Level Chicago Center
12:36PM 40.8744 -87.5889 169° South 448 516 23,000  Level Chicago Center
12:37PM 40.7294 -87.5517 169° South 444 511 23,000  Level Chicago Center
12:38PM 40.6089 -87.5219 169° South 443 510 23,000  Level Chicago Center
12:39PM 40.4892 -87.4917 169° South 439 505 23,000 -180 Level Chicago Center
12:40PM 40.3686 -87.4622 169° South 443 510 22,700 -780 Descending Chicago Center
12:41PM 40.2314 -87.4308 170° South 444 511 21,500 -1,080 Descending Chicago Center
12:42PM 40.1131 -87.3994 169° South 436 502 20,500 -1,020 Descending Chicago Center
12:43PM 39.9964 -87.3728 170° South 427 491 19,500 -780 Descending Chicago Center
12:44PM 39.8836 -87.3450 169° South 411 473 19,000 -300 Descending Indianapolis Center
12:45PM 39.7722 -87.3183 170° South 407 468 19,000  Level Indianapolis Center
12:46PM 39.6611 -87.2908 169° South 406 467 19,000  Level Indianapolis Center
12:47PM 39.5494 -87.2561 167° South 410 472 19,000  Level Indianapolis Center
12:48PM 39.4417 -87.1914 155° Southeast 422 486 19,000  Level Indianapolis Center
12:49PM 39.3358 -87.1317 156° South 418 481 19,000  Level Indianapolis Center
12:50PM 39.2106 -87.0622 157° South 418 481 19,000  Level Indianapolis Center
12:51PM 39.1097 -87.0031 156° South 416 479 19,000  Level Indianapolis Center
12:52PM 39.0050 -86.9456 157° South 409 471 19,000  Level Indianapolis Center
12:53PM 38.9008 -86.8861 156° South 407 468 19,000 -300 Level Indianapolis Center
12:54PM 38.7956 -86.8269 156° South 409 471 18,400 -540 Descending Indianapolis Center
12:55PM 38.6922 -86.7700 157° South 401 461 17,900 -780 Descending Indianapolis Center
12:56PM 38.5892 -86.7131 157° South 398 458 16,900 -1,080 Descending Indianapolis Center
12:57PM 38.4706 -86.6469 156° South 382 440 15,700 -1,260 Descending Indianapolis Center
12:58PM 38.3728 -86.5936 157° South 377 434 14,300 -1,800 Descending Indianapolis Center
01:00PM 38.2803 -86.5411 156° South 362 417 12,000 -1,620 Descending Indianapolis Center
01:01PM 38.2211 -86.4506 130° Southeast 344 396 11,000 -840 Descending Indianapolis Center
01:02PM 38.2056 -86.3358 100° East 329 379 10,300 -840 Descending Indianapolis Center
01:03PM 38.1931 -86.2333 99° East 301 346 9,300 -1,200 Descending Indianapolis Center
01:04PM 38.1803 -86.1364 99° East 283 326 7,900 -1,140 Descending Indianapolis Center
01:05PM 38.1678 -86.0419 100° East 274 315 7,000 -480 Descending Indianapolis Center
01:06PM 38.1536 -85.9467 101° East 233 268 7,000  Level Indianapolis Center
01:07PM 38.1431 -85.8689 100° East 223 257 7,000  Level Indianapolis Center
01:08PM 38.1619 -85.8053 69° East 253 291 7,000 -420 Level Indianapolis Center
01:09PM 38.2156 -85.8472 328° Northwest 230 265 6,200 -1,020 Descending Indianapolis Center
01:10PM 38.2694 -85.8919 327° Northwest 230 265 5,000 -1,260 Descending Indianapolis Center
01:11PM 38.3206 -85.9006 352° North 234 269 3,600 -1,020 Descending Indianapolis Center
01:12PM 38.3056 -85.8339 106° East 211 243 3,000 -540 Descending Indianapolis Center
01:13PM 38.2769 -85.7769 123° Southeast 193 222 2,600 -420 Descending Indianapolis Center
01:16PM 38.1741 -85.7365 137° Southeast  Level Estimated
01:23PM 38.1741 -85.7365 302° West  Level Estimated